Time;durP1;ratioP1;P1;durP2;ratioP2;P2;SDS_P1;SDS_P2;PMS_P1;PMS_P2;Temp;Humidity;BMP_temperature;BMP_pressure;BME280_temperature;BME280_humidity;BME280_pressure;Samples;Min_cycle;Max_cycle;Signal;HPM_P1;HPM_P2
2021/04/11 07:02:10;;;;;;;6.30;3.72;;;;;;;11.52;66.65;98092.09;5375732;23;20146;-73
2021/04/11 07:05:01;;;;;;;8.52;4.03;;;;;;;12.03;64.45;98089.47;4954763;29;20106;-73
2021/04/11 07:07:45;;;;;;;8.63;3.58;;;;;;;13.45;60.13;98085.91;4955844;28;20019;-73
2021/04/11 07:10:16;;;;;;;5.80;4.13;;;;;;;13.56;59.16;98091.50;4954377;28;20416;-74
2021/04/11 07:13:06;;;;;;;7.93;4.13;;;;;;;13.69;58.34;98091.00;4955620;28;20118;-74
2021/04/11 07:15:53;;;;;;;5.38;3.10;;;;;;;13.47;58.00;98089.28;4956113;28;20023;-74
2021/04/11 07:18:28;;;;;;;7.53;3.55;;;;;;;15.12;53.55;98082.00;4955624;28;20023;-74
2021/04/11 07:21:21;;;;;;;5.80;2.70;;;;;;;16.51;50.93;98082.00;4955480;28;20046;-74
2021/04/11 07:24:12;;;;;;;4.22;2.60;;;;;;;15.85;50.18;98074.97;4955421;28;20020;-74
2021/04/11 07:27:16;;;;;;;4.72;2.63;;;;;;;14.59;53.26;98077.50;4945356;28;20126;-74
2021/04/11 07:30:25;;;;;;;8.60;3.15;;;;;;;13.12;58.44;98094.09;4955537;28;20055;-73
2021/04/11 07:33:08;;;;;;;5.50;3.53;;;;;;;12.57;61.19;98098.81;4933737;29;20035;-73
2021/04/11 07:35:55;;;;;;;4.85;3.25;;;;;;;12.50;62.44;98094.75;4953554;28;20075;-73
2021/04/11 07:38:49;;;;;;;10.70;3.20;;;;;;;12.30;63.15;98094.63;4955389;28;20241;-74
2021/04/11 07:41:33;;;;;;;6.43;3.47;;;;;;;12.23;63.94;98099.19;4954990;28;20089;-73
2021/04/11 07:44:32;;;;;;;10.32;3.35;;;;;;;12.53;63.90;98099.00;4955117;28;20031;-73
2021/04/11 07:47:28;;;;;;;7.28;3.50;;;;;;;12.67;62.71;98096.72;4955031;28;20086;-74
2021/04/11 07:50:20;;;;;;;6.82;2.95;;;;;;;12.85;61.73;98105.56;4955064;28;20102;-73
2021/04/11 07:53:03;;;;;;;9.40;3.20;;;;;;;12.89;62.05;98104.53;4954832;28;20027;-74
2021/04/11 07:55:56;;;;;;;4.93;3.17;;;;;;;12.98;61.72;98104.19;4954954;28;20256;-74
2021/04/11 07:58:42;;;;;;;6.30;2.80;;;;;;;13.16;59.77;98104.41;4954935;28;20027;-74
2021/04/11 08:01:14;;;;;;;4.30;2.97;;;;;;;13.87;58.91;98095.44;4954654;28;20035;-74
2021/04/11 08:03:42;;;;;;;6.38;3.20;;;;;;;14.22;57.41;98098.31;4954746;28;20027;-66
2021/04/11 08:06:51;;;;;;;6.50;3.45;;;;;;;14.84;57.12;98094.63;4953491;28;20042;-69
2021/04/11 08:09:28;;;;;;;4.80;2.73;;;;;;;15.81;53.55;98096.09;4954829;28;20428;-68
2021/04/11 08:12:24;;;;;;;5.15;2.83;;;;;;;15.51;52.83;98091.44;4954418;28;20038;-68
2021/04/11 08:15:10;;;;;;;10.07;3.22;;;;;;;16.25;52.27;98090.41;4954895;28;20038;-68
2021/04/11 08:18:20;;;;;;;6.10;2.75;;;;;;;17.17;50.93;98091.53;4954622;28;20027;-68
2021/04/11 08:21:06;;;;;;;3.28;2.50;;;;;;;18.74;47.06;98079.66;4937647;28;20118;-69
2021/04/11 08:23:46;;;;;;;6.22;2.88;;;;;;;19.19;46.77;98085.56;4953864;28;20488;-68
2021/04/11 08:26:41;;;;;;;8.15;2.72;;;;;;;20.45;43.14;98085.09;4954379;28;20031;-69
2021/04/11 08:29:17;;;;;;;6.68;2.75;;;;;;;18.53;46.72;98091.47;4954477;28;20043;-68
2021/04/11 08:31:51;;;;;;;6.13;2.67;;;;;;;20.45;43.30;98079.81;4954123;28;20031;-69
2021/04/11 08:34:47;;;;;;;6.30;2.80;;;;;;;20.61;41.87;98092.81;4954475;28;20054;-69
2021/04/11 08:37:36;;;;;;;3.97;2.20;;;;;;;19.89;41.71;98084.56;4954183;28;20028;-68
2021/04/11 08:40:26;;;;;;;5.45;2.17;;;;;;;20.38;40.60;98089.09;4954300;28;20027;-69
2021/04/11 08:43:18;;;;;;;3.65;1.95;;;;;;;20.76;39.62;98082.03;4954063;28;20023;-69
2021/04/11 08:45:55;;;;;;;3.30;1.48;;;;;;;20.14;37.40;98084.56;4954223;28;20027;-68
2021/04/11 08:48:48;;;;;;;2.83;1.20;;;;;;;20.10;37.18;98084.88;4954210;28;20039;-68
2021/04/11 08:51:21;;;;;;;5.95;1.90;;;;;;;21.63;35.49;98080.16;4953910;28;20027;-68
2021/04/11 08:54:17;;;;;;;2.50;1.70;;;;;;;22.27;33.56;98077.97;4954058;28;20037;-69
2021/04/11 08:57:15;;;;;;;4.45;1.20;;;;;;;21.11;34.63;98081.31;4954161;28;20027;-69
2021/04/11 09:00:09;;;;;;;4.20;1.00;;;;;;;21.24;34.22;98087.38;4954140;28;20027;-68
2021/04/11 09:02:53;;;;;;;3.03;1.25;;;;;;;19.80;36.24;98080.75;4953701;28;20270;-69
2021/04/11 09:05:23;;;;;;;3.58;1.33;;;;;;;20.09;35.51;98080.56;4952778;28;20559;-68
2021/04/11 09:07:49;;;;;;;1.30;1.05;;;;;;;20.63;34.84;98080.38;4953774;28;20035;-68
2021/04/11 09:10:29;;;;;;;1.10;1.00;;;;;;;20.78;34.38;98077.50;4953831;28;20519;-68
2021/04/11 09:13:13;;;;;;;2.80;2.33;;;;;;;20.05;35.58;98079.94;4953660;28;20042;-68
2021/04/11 09:15:51;;;;;;;1.77;1.20;;;;;;;19.04;37.44;98086.53;4953978;28;20023;-68
2021/04/11 09:18:54;;;;;;;2.05;1.30;;;;;;;18.24;39.60;98080.13;4953760;28;20472;-68
2021/04/11 09:21:45;;;;;;;2.63;0.90;;;;;;;17.64;41.14;98080.97;4953939;28;20039;-69
2021/04/11 09:24:42;;;;;;;4.55;2.00;;;;;;;17.39;41.10;98081.53;4953821;28;20059;-68
2021/04/11 09:27:36;;;;;;;2.30;1.45;;;;;;;17.03;41.64;98079.22;4943497;28;20047;-69
2021/04/11 09:30:21;;;;;;;1.65;1.27;;;;;;;17.01;42.42;98086.28;4953792;28;20031;-69
2021/04/11 09:33:17;;;;;;;3.75;1.77;;;;;;;17.38;41.62;98085.09;4952413;28;20388;-68
2021/04/11 09:35:45;;;;;;;3.65;1.25;;;;;;;17.67;41.97;98087.81;4956135;28;20035;-68
2021/04/11 09:38:24;;;;;;;1.38;1.08;;;;;;;18.36;41.23;98075.88;4957378;28;20030;-71
2021/04/11 09:41:13;;;;;;;1.63;0.85;;;;;;;19.55;38.04;98073.63;4957479;28;20027;-72
2021/04/11 09:44:01;;;;;;;3.38;1.83;;;;;;;19.70;36.76;98080.50;4957224;28;20081;-70
2021/04/11 09:46:51;;;;;;;2.17;1.80;;;;;;;20.09;38.01;98086.69;4957333;29;20487;-70
2021/04/11 09:49:47;;;;;;;2.85;1.00;;;;;;;19.94;37.61;98078.03;4957224;28;20039;-68
2021/04/11 09:52:35;;;;;;;3.00;1.27;;;;;;;19.68;37.09;98082.41;4956809;28;20516;-71
2021/04/11 09:55:06;;;;;;;4.72;2.40;;;;;;;19.20;38.08;98076.75;4957378;28;20039;-69
2021/04/11 09:57:49;;;;;;;2.33;1.70;;;;;;;19.11;37.70;98076.50;4951202;28;20587;-70
2021/04/11 10:00:45;;;;;;;3.03;1.70;;;;;;;19.37;37.57;98073.03;4943737;28;20133;-69
2021/04/11 10:03:39;;;;;;;7.32;2.95;;;;;;;19.39;37.10;98079.03;4956848;28;20062;-70
2021/04/11 10:06:17;;;;;;;2.45;1.33;;;;;;;19.54;37.60;98068.47;4947181;28;20039;-70
2021/04/11 10:09:00;;;;;;;2.45;1.40;;;;;;;19.48;36.57;98061.81;4956927;28;20031;-70
2021/04/11 10:11:34;;;;;;;2.15;1.23;;;;;;;19.51;37.19;98064.25;4955553;28;20082;-72
2021/04/11 10:14:32;;;;;;;5.22;1.30;;;;;;;20.27;36.03;98058.28;4933920;28;20031;-71
2021/04/11 10:17:16;;;;;;;2.17;1.20;;;;;;;20.48;35.40;98054.19;4965813;28;20019;-71
2021/04/11 10:19:46;;;;;;;4.78;1.88;;;;;;;20.76;35.53;98060.97;4939249;28;20137;-71
2021/04/11 10:22:30;;;;;;;;;;;;;;;20.94;34.16;98058.00;4964054;28;20476;-71
2021/04/11 10:25:29;;;;;;;2.28;1.33;;;;;;;20.69;34.72;98057.06;4940711;28;19917;-73
2021/04/11 10:28:12;;;;;;;7.13;1.42;;;;;;;21.02;34.75;98053.00;4958441;28;20131;-70
2021/04/11 10:30:39;;;;;;;3.08;1.25;;;;;;;21.00;34.93;98058.38;4945771;28;20492;-70
2021/04/11 10:33:16;;;;;;;1.98;1.00;;;;;;;20.77;34.94;98057.38;4957141;28;20478;-70
2021/04/11 10:35:58;;;;;;;4.65;1.52;;;;;;;20.26;35.62;98052.19;4946079;28;20122;-70
2021/04/11 10:38:32;;;;;;;3.47;1.30;;;;;;;19.73;36.67;98048.78;4956359;28;20031;-71
2021/04/11 10:41:16;;;;;;;3.72;1.63;;;;;;;19.48;37.49;98054.75;4946733;28;20046;-71
2021/04/11 10:43:41;;;;;;;6.72;2.80;;;;;;;19.25;37.41;98053.66;4956233;28;20484;-71
2021/04/11 10:46:12;;;;;;;3.55;1.67;;;;;;;19.50;36.66;98046.78;4946202;28;20078;-71
2021/04/11 10:48:53;;;;;;;5.32;1.58;;;;;;;19.62;36.02;98040.75;4956149;28;20106;-71
2021/04/11 10:51:37;;;;;;;4.25;2.70;;;;;;;19.77;35.44;98042.38;4956115;28;20393;-71
2021/04/11 10:54:08;;;;;;;6.60;5.13;;;;;;;19.51;35.37;98043.22;4933125;28;20038;-71
2021/04/11 10:56:52;;;;;;;2.53;1.30;;;;;;;19.87;36.07;98039.97;4968445;28;20114;-71
2021/04/11 10:59:36;;;;;;;1.67;1.30;;;;;;;20.49;35.40;98036.59;4935286;28;20535;-71
2021/04/11 11:02:19;;;;;;;3.97;1.70;;;;;;;20.19;34.31;98037.75;4964497;28;20039;-71
2021/04/11 11:04:54;;;;;;;6.97;1.33;;;;;;;19.97;34.73;98037.56;4938235;28;20113;-71
2021/04/11 11:07:32;;;;;;;2.90;1.13;;;;;;;20.81;32.60;98033.47;4954509;28;20019;-71
2021/04/11 11:10:25;;;;;;;3.65;1.48;;;;;;;22.27;32.14;98025.19;4939308;28;20515;-71
2021/04/11 11:13:15;;;;;;;3.70;1.00;;;;;;;26.82;26.12;98015.56;4958122;28;20034;-70
2021/04/11 11:15:46;;;;;;;4.13;0.93;;;;;;;29.20;21.81;98021.59;4945107;28;20139;-70
2021/04/11 11:18:42;;;;;;;1.52;1.00;;;;;;;30.49;20.87;98010.22;4955740;28;20054;-71
2021/04/11 11:21:13;;;;;;;2.38;1.10;;;;;;;29.90;21.11;98019.34;4931236;28;20067;-71
2021/04/11 11:24:12;;;;;;;4.18;0.85;;;;;;;28.64;22.00;98010.59;4955325;28;20035;-71
2021/04/11 11:27:02;;;;;;;4.82;1.30;;;;;;;27.04;23.70;98008.19;4955041;28;20042;-71
2021/04/11 11:30:09;;;;;;;4.70;1.13;;;;;;;24.00;26.77;98015.59;4923062;28;20042;-70
2021/04/11 11:32:50;;;;;;;2.53;1.33;;;;;;;21.42;32.16;98019.34;4936157;28;20553;-70
2021/04/11 11:35:16;;;;;;;7.82;1.90;;;;;;;21.64;31.20;98010.66;4927429;28;20042;-70
2021/04/11 11:37:47;;;;;;;2.40;1.50;;;;;;;20.73;32.57;98018.22;4959219;28;20035;-70
2021/04/11 11:40:29;;;;;;;4.30;1.40;;;;;;;20.27;33.47;98011.75;4940641;28;20046;-71
2021/04/11 11:43:05;;;;;;;2.40;1.10;;;;;;;19.92;33.34;98010.69;4957770;28;20031;-70
2021/04/11 11:45:42;;;;;;;7.40;1.73;;;;;;;19.65;34.62;98009.00;4942702;28;20060;-70
2021/04/11 11:48:13;;;;;;;1.85;1.20;;;;;;;19.36;35.07;98012.72;4956064;28;20415;-70
2021/04/11 11:50:54;;;;;;;2.30;1.13;;;;;;;19.45;35.40;98006.84;4943489;28;20404;-71
2021/04/11 11:53:25;;;;;;;1.92;1.30;;;;;;;19.67;35.59;98004.47;4954727;28;20106;-71
2021/04/11 11:56:26;;;;;;;4.05;1.75;;;;;;;19.76;34.57;98001.22;4944804;28;20046;-71
2021/04/11 11:59:17;;;;;;;6.22;1.73;;;;;;;19.87;34.64;98012.81;4953507;28;20027;-71
2021/04/11 12:01:53;;;;;;;5.88;1.42;;;;;;;19.96;34.34;98001.66;4954302;28;20046;-71
2021/04/11 12:04:33;;;;;;;6.78;1.98;;;;;;;20.27;35.04;98000.41;4931771;28;20134;-70
2021/04/11 12:07:07;;;;;;;8.30;4.97;;;;;;;20.64;33.90;98003.06;4964249;28;20030;-71
2021/04/11 12:09:44;;;;;;;2.83;1.33;;;;;;;20.53;33.94;98002.06;4931623;28;20094;-70
2021/04/11 12:12:12;;;;;;;3.50;1.30;;;;;;;20.77;33.99;97999.47;4953144;29;20476;-70
2021/04/11 12:14:47;;;;;;;3.55;1.42;;;;;;;21.07;33.00;97990.28;4935147;28;20050;-71
2021/04/11 12:17:45;;;;;;;2.10;1.20;;;;;;;21.84;32.08;97981.94;4962657;28;20415;-71
2021/04/11 12:20:26;;;;;;;9.35;7.07;;;;;;;21.79;32.59;97982.28;4938959;28;20061;-72
2021/04/11 12:23:12;;;;;;;2.08;1.25;;;;;;;22.00;31.31;97974.50;4957750;28;20031;-76
2021/04/11 12:25:38;;;;;;;2.38;1.40;;;;;;;21.89;31.24;97969.22;4942623;28;20082;-72
2021/04/11 12:28:23;;;;;;;5.25;1.20;;;;;;;21.83;31.44;97967.06;4956098;28;20386;-73
2021/04/11 12:30:49;;;;;;;4.68;1.20;;;;;;;22.05;31.86;97969.75;4943280;28;20066;-72
2021/04/11 12:33:50;;;;;;;3.83;1.05;;;;;;;21.07;33.15;97971.00;4954774;28;20106;-69
2021/04/11 12:36:31;;;;;;;2.10;1.00;;;;;;;20.66;33.51;97980.97;4944502;28;20101;-74
2021/04/11 12:39:11;;;;;;;4.72;1.30;;;;;;;21.12;33.05;97967.06;4945114;28;20105;-71
2021/04/11 12:41:48;;;;;;;3.20;1.00;;;;;;;21.66;32.77;97961.31;4954050;28;20027;-72
2021/04/11 12:44:20;;;;;;;0.90;0.90;;;;;;;21.09;32.93;97955.94;4931594;28;20051;-70
2021/04/11 12:47:30;;;;;;;2.80;1.27;;;;;;;20.06;34.83;97960.63;4965600;28;20500;-71
2021/04/11 12:50:18;;;;;;;2.83;1.13;;;;;;;19.23;35.83;97958.34;4928285;28;20070;-71
2021/04/11 12:53:10;;;;;;;6.25;1.08;;;;;;;19.83;35.07;97948.25;4958532;28;20377;-70
2021/04/11 12:55:45;;;;;;;15.10;8.88;;;;;;;20.43;34.70;97952.78;4941306;28;20117;-71
2021/04/11 12:58:29;;;;;;;2.83;1.23;;;;;;;20.50;35.20;97954.03;4955347;28;20023;-71
2021/04/11 13:01:09;;;;;;;3.85;1.17;;;;;;;20.38;35.01;97949.66;4943244;28;20503;-72
2021/04/11 13:03:43;;;;;;;2.17;1.20;;;;;;;20.43;34.12;97952.78;4953748;28;20392;-71
2021/04/11 13:06:24;;;;;;;2.58;1.02;;;;;;;20.47;33.46;97938.50;4929807;28;20127;-72
2021/04/11 13:08:55;;;;;;;2.88;1.15;;;;;;;20.74;34.36;97939.13;4955513;28;20066;-72
2021/04/11 13:11:26;;;;;;;4.07;1.50;;;;;;;20.39;33.77;97940.78;4949954;28;20492;-72
2021/04/11 13:14:14;;;;;;;4.35;1.38;;;;;;;19.89;34.28;97938.16;4960010;28;20707;-72
2021/04/11 13:16:48;;;;;;;1.60;1.30;;;;;;;20.63;34.21;97933.78;4960483;28;20031;-69
2021/04/11 13:19:20;;;;;;;2.95;1.65;;;;;;;20.62;34.22;97929.50;4935914;28;20031;-68
2021/04/11 13:21:55;;;;;;;4.63;1.33;;;;;;;20.76;33.55;97931.13;4959767;28;20034;-68
2021/04/11 13:24:43;;;;;;;2.72;1.02;;;;;;;20.51;33.52;97929.44;4938027;28;20102;-69
2021/04/11 13:27:20;;;;;;;3.03;1.20;;;;;;;20.39;34.21;97925.00;4948388;29;20050;-69
2021/04/11 13:30:07;;;;;;;4.25;1.27;;;;;;;20.07;34.72;97925.50;4936018;28;20047;-68
2021/04/11 13:32:51;;;;;;;2.53;1.20;;;;;;;19.14;37.25;97924.81;4959702;28;20037;-68
2021/04/11 13:35:22;;;;;;;1.40;0.90;;;;;;;19.42;36.56;97933.47;4922266;28;20058;-68
2021/04/11 13:38:12;;;;;;;7.55;4.70;;;;;;;19.79;36.37;97941.53;4959852;28;20030;-68
2021/04/11 13:40:37;;;;;;;9.70;1.23;;;;;;;19.29;39.37;97948.38;4946809;28;20038;-68
2021/04/11 13:43:12;;;;;;;2.13;1.25;;;;;;;18.78;40.90;97943.00;4962629;28;20035;-68
2021/04/11 13:45:52;;;;;;;3.55;1.27;;;;;;;18.60;41.95;97944.97;4947108;28;20058;-68
2021/04/11 13:48:37;;;;;;;1.48;1.23;;;;;;;18.24;41.37;97949.81;4960823;28;20476;-69
2021/04/11 13:51:31;;;;;;;1.48;1.20;;;;;;;18.11;44.60;97954.16;4934544;28;20532;-69
2021/04/11 13:54:14;;;;;;;2.13;1.33;;;;;;;17.75;45.09;97951.16;4959623;28;20023;-69
2021/04/11 13:57:11;;;;;;;2.30;1.27;;;;;;;17.63;44.70;97952.69;4959647;28;20443;-69
2021/04/11 13:59:51;;;;;;;4.38;1.40;;;;;;;17.72;45.56;97952.97;4939382;28;20034;-67
2021/04/11 14:02:22;;;;;;;;;;;;;;;17.97;45.57;97957.59;4968472;28;20493;-67
2021/04/11 14:05:26;;;;;;;2.47;1.08;;;;;;;18.00;44.29;97951.34;4935630;28;19916;-67
2021/04/11 14:08:01;;;;;;;4.80;1.15;;;;;;;18.10;42.88;97947.22;4959183;29;20043;-67
2021/04/11 14:10:41;;;;;;;3.08;1.10;;;;;;;18.17;42.77;97948.50;4945141;28;20061;-68
2021/04/11 14:13:27;;;;;;;6.07;1.33;;;;;;;18.66;42.38;97945.44;4947134;29;20027;-68
2021/04/11 14:16:15;;;;;;;4.00;1.25;;;;;;;18.50;42.32;97952.59;4936724;28;20043;-68
2021/04/11 14:18:52;;;;;;;4.47;1.17;;;;;;;18.34;43.00;97959.75;4958164;29;20496;-68
2021/04/11 14:21:37;;;;;;;2.42;1.45;;;;;;;18.50;44.24;97955.22;4932230;28;20480;-68
2021/04/11 14:24:02;;;;;;;2.47;1.50;;;;;;;18.79;43.11;97942.03;4956418;28;20398;-70
2021/04/11 14:26:56;;;;;;;3.20;1.13;;;;;;;18.05;42.90;97954.53;4946918;28;20054;-69
2021/04/11 14:29:35;;;;;;;2.78;1.23;;;;;;;18.46;43.38;97948.47;4920550;28;20074;-68
2021/04/11 14:32:04;;;;;;;2.25;1.35;;;;;;;18.09;43.09;97953.41;4967452;28;20452;-68
2021/04/11 14:34:48;;;;;;;4.90;2.22;;;;;;;18.31;43.36;97949.44;4934686;28;20652;-68
2021/04/11 14:37:33;;;;;;;3.15;1.83;;;;;;;17.95;44.35;97949.00;4951654;29;20020;-68
2021/04/11 14:40:04;;;;;;;3.65;2.00;;;;;;;17.82;44.21;97953.31;4938337;28;20070;-68
2021/04/11 14:42:34;;;;;;;2.42;1.45;;;;;;;18.04;44.23;97946.78;4963785;28;20082;-69
2021/04/11 14:45:14;;;;;;;2.65;1.42;;;;;;;18.23;44.01;97950.78;4933286;28;20047;-69
2021/04/11 14:47:54;;;;;;;3.20;2.08;;;;;;;18.60;43.60;97955.47;4962255;28;20023;-69
2021/04/11 14:50:34;;;;;;;3.67;1.30;;;;;;;18.29;44.39;97956.56;4939867;28;20504;-69
2021/04/11 14:53:12;;;;;;;3.40;2.15;;;;;;;18.22;44.71;97956.94;4958772;28;20058;-69
2021/04/11 14:55:37;;;;;;;3.13;1.42;;;;;;;17.79;45.46;97960.50;4942864;28;20042;-68
2021/04/11 14:58:25;;;;;;;5.57;3.00;;;;;;;18.49;45.07;97958.78;4959294;28;20059;-68
2021/04/11 15:01:05;;;;;;;4.20;1.77;;;;;;;18.26;45.48;97962.00;4907436;29;20055;-68
2021/04/11 15:03:36;;;;;;;;;;;;;;;18.27;45.83;97963.69;4956210;29;20033;-68
2021/04/11 15:06:11;;;;;;;1.90;1.20;;;;;;;17.81;46.13;97958.66;4931605;28;20287;-68
2021/04/11 15:08:50;;;;;;;1.60;1.40;;;;;;;17.88;46.50;97963.41;4955570;28;20023;-69
2021/04/11 15:11:40;;;;;;;4.03;1.48;;;;;;;17.83;45.69;97959.38;4945840;28;20039;-68
2021/04/11 15:14:05;;;;;;;4.53;1.27;;;;;;;18.27;46.31;97974.16;4955521;28;20082;-69
2021/04/11 15:16:33;;;;;;;2.03;1.20;;;;;;;17.76;46.10;97994.78;4945732;28;20043;-69
2021/04/11 15:19:09;;;;;;;3.10;1.40;;;;;;;17.85;46.71;98000.31;4955410;28;20087;-70
2021/04/11 15:21:43;;;;;;;1.80;1.10;;;;;;;17.85;46.44;98000.31;4935327;28;20034;-68
2021/04/11 15:24:21;;;;;;;3.03;1.15;;;;;;;17.62;47.20;97998.16;4955479;28;20110;-69
2021/04/11 15:27:15;;;;;;;3.30;1.77;;;;;;;17.61;47.20;98002.56;4955094;28;20489;-69
2021/04/11 15:29:50;;;;;;;2.22;1.50;;;;;;;17.27;48.34;98013.31;4930621;28;20093;-69
2021/04/11 15:32:29;;;;;;;6.18;1.63;;;;;;;17.14;48.11;98013.19;4952853;28;20111;-69
2021/04/11 15:34:58;;;;;;;2.13;1.13;;;;;;;17.11;49.62;98022.03;4932363;28;20134;-68
2021/04/11 15:37:43;;;;;;;6.10;1.63;;;;;;;17.07;49.60;98017.91;4964083;28;20015;-69
2021/04/11 15:40:33;;;;;;;4.00;2.38;;;;;;;17.09;49.31;98029.13;4937687;28;20043;-68
2021/04/11 15:43:23;;;;;;;2.15;1.38;;;;;;;16.83;49.71;98041.06;4959376;28;20023;-69
2021/04/11 15:45:55;;;;;;;3.08;1.88;;;;;;;16.70;50.14;98050.47;4942632;28;20050;-68
2021/04/11 15:48:43;;;;;;;3.25;1.80;;;;;;;16.12;51.44;98064.88;4956771;28;20027;-68
2021/04/11 15:51:12;;;;;;;2.25;1.52;;;;;;;16.24;51.66;98067.75;4929634;28;20026;-69
2021/04/11 15:54:04;;;;;;;6.75;3.03;;;;;;;16.05;52.01;98078.31;4954830;28;20098;-69
2021/04/11 15:56:40;;;;;;;7.30;3.20;;;;;;;15.82;53.66;98092.59;4945037;28;20043;-69
2021/04/11 15:59:14;;;;;;;4.47;3.03;;;;;;;15.35;55.98;98108.78;4939143;29;20027;-69
2021/04/11 16:02:08;;;;;;;7.18;5.07;;;;;;;15.22;56.59;98115.50;4948152;28;20510;-69
2021/04/11 16:04:44;;;;;;;3.42;2.53;;;;;;;15.04;57.63;98136.31;4930770;28;20429;-72
2021/04/11 16:07:32;;;;;;;3.90;2.38;;;;;;;14.73;58.52;98152.50;4947092;29;20063;-70
2021/04/11 16:10:06;;;;;;;4.47;2.28;;;;;;;14.57;58.70;98173.22;4935096;28;20402;-69
2021/04/11 16:12:40;;;;;;;5.38;2.45;;;;;;;14.24;59.90;98179.84;4962525;28;20481;-68
2021/04/11 16:15:17;;;;;;;3.65;1.85;;;;;;;13.94;62.19;98172.41;4921405;28;20035;-67
2021/04/11 16:17:50;;;;;;;1.98;1.80;;;;;;;13.74;65.30;98209.69;4961297;28;20089;-67
2021/04/11 16:20:43;;;;;;;5.07;1.60;;;;;;;13.38;68.28;98227.56;4937381;28;20066;-67
2021/04/11 16:23:40;;;;;;;5.30;2.00;;;;;;;13.05;72.37;98240.91;4943216;29;20023;-67
2021/04/11 16:26:21;;;;;;;3.20;1.95;;;;;;;12.71;73.12;98238.66;4940615;28;20042;-68
2021/04/11 16:29:02;;;;;;;4.78;1.75;;;;;;;12.41;73.89;98240.56;4940392;28;20031;-68
2021/04/11 16:31:52;;;;;;;4.45;1.45;;;;;;;12.27;73.50;98238.44;4933510;28;20043;-67
2021/04/11 16:34:26;;;;;;;1.73;1.10;;;;;;;12.28;75.26;98239.28;4924930;28;20548;-68
2021/04/11 16:36:57;;;;;;;1.52;1.42;;;;;;;12.16;77.46;98255.28;4945639;29;20031;-68
2021/04/11 16:39:25;;;;;;;3.72;2.00;;;;;;;11.89;79.68;98257.00;4921798;28;20031;-68
2021/04/11 16:41:56;;;;;;;2.83;1.83;;;;;;;12.02;80.09;98256.56;4954734;28;20035;-68
2021/04/11 16:44:37;;;;;;;2.75;1.83;;;;;;;11.82;80.13;98277.13;4921021;28;20031;-69
2021/04/11 16:47:14;;;;;;;2.80;1.70;;;;;;;11.84;79.36;98283.09;4947216;28;20110;-68
2021/04/11 16:50:09;;;;;;;1.30;1.20;;;;;;;11.51;78.38;98287.56;4920418;28;20106;-69
2021/04/11 16:52:44;;;;;;;1.77;1.55;;;;;;;11.58;78.75;98296.84;4947636;28;20031;-68
2021/04/11 16:55:18;;;;;;;1.65;1.38;;;;;;;11.62;78.96;98295.88;4927142;28;20116;-69
2021/04/11 16:57:43;;;;;;;2.88;1.40;;;;;;;11.31;79.74;98301.09;4952584;28;20023;-69
2021/04/11 17:00:19;;;;;;;2.15;1.30;;;;;;;11.46;78.41;98303.28;4923101;28;20562;-68
2021/04/11 17:03:01;;;;;;;1.50;1.40;;;;;;;11.31;80.04;98301.09;4943862;28;20036;-68
2021/04/11 17:05:30;;;;;;;1.67;1.33;;;;;;;11.44;79.39;98309.38;4923472;28;20062;-68
2021/04/11 17:08:14;;;;;;;2.08;1.42;;;;;;;11.35;78.61;98313.09;4950964;28;20035;-68
2021/04/11 17:11:05;;;;;;;4.40;1.30;;;;;;;11.51;78.70;98319.53;4930677;28;20126;-68
2021/04/11 17:13:37;;;;;;;4.30;1.40;;;;;;;11.49;79.53;98316.13;4918071;29;20043;-68
2021/04/11 17:16:30;;;;;;;1.45;1.17;;;;;;;11.14;80.79;98329.25;4924914;28;20043;-68
2021/04/11 17:19:12;;;;;;;1.35;1.15;;;;;;;11.27;79.36;98334.06;4945349;29;20041;-67
2021/04/11 17:21:47;;;;;;;2.45;1.42;;;;;;;11.29;80.31;98336.59;4924985;28;20051;-68
2021/04/11 17:24:35;;;;;;;1.70;1.60;;;;;;;11.35;80.57;98339.03;4939145;29;20082;-68
2021/04/11 17:27:18;;;;;;;2.40;1.67;;;;;;;11.20;80.49;98342.88;4944984;29;20036;-68
2021/04/11 17:29:49;;;;;;;1.50;1.40;;;;;;;11.09;81.60;98341.50;4919026;28;20779;-68
2021/04/11 17:32:32;;;;;;;1.60;1.50;;;;;;;11.01;81.65;98350.31;4954759;28;20042;-68
2021/04/11 17:35:10;;;;;;;1.58;1.48;;;;;;;11.02;81.41;98354.63;4917809;28;20050;-68
2021/04/11 17:38:06;;;;;;;3.08;2.38;;;;;;;11.19;80.95;98354.16;4944760;28;20046;-68
2021/04/11 17:40:32;;;;;;;1.67;1.58;;;;;;;11.18;80.59;98367.19;4913870;28;20109;-68
2021/04/11 17:43:15;;;;;;;1.52;1.42;;;;;;;11.20;80.68;98371.41;4935782;28;20494;-68
2021/04/11 17:45:59;;;;;;;1.90;1.33;;;;;;;11.28;79.67;98373.81;4923806;28;20053;-68
2021/04/11 17:48:36;;;;;;;2.30;1.38;;;;;;;11.23;79.51;98380.88;4940873;28;20404;-67
2021/04/11 17:51:43;;;;;;;6.88;3.25;;;;;;;11.11;80.63;98376.00;4924722;28;20074;-69
2021/04/11 17:54:32;;;;;;;1.85;1.75;;;;;;;11.11;81.77;98387.22;4944123;28;20039;-68
2021/04/11 17:57:27;;;;;;;1.63;1.50;;;;;;;11.23;79.98;98392.09;4947710;28;20023;-68
2021/04/11 18:00:12;;;;;;;2.40;1.50;;;;;;;11.19;80.57;98400.00;4919455;28;20581;-68
2021/04/11 18:03:15;;;;;;;22.05;11.82;;;;;;;11.19;80.79;98405.19;4953917;28;21202;-69
2021/04/11 18:06:22;;;;;;;2.20;2.00;;;;;;;11.22;81.20;98415.47;4924675;28;20051;-68
2021/04/11 18:09:07;;;;;;;3.85;2.35;;;;;;;11.08;81.23;98418.44;4952780;28;20035;-68
2021/04/11 18:11:48;;;;;;;1.90;1.70;;;;;;;11.13;81.15;98415.72;4935781;28;20081;-68
2021/04/11 18:14:22;;;;;;;3.25;1.80;;;;;;;11.22;81.26;98426.69;4948509;28;20031;-68
2021/04/11 18:16:54;;;;;;;1.92;1.73;;;;;;;11.12;81.26;98429.56;4924290;28;20038;-68
2021/04/11 18:19:38;;;;;;;2.70;1.70;;;;;;;11.01;81.34;98427.25;4947931;28;20538;-68
2021/04/11 18:22:13;;;;;;;3.70;1.70;;;;;;;11.11;80.83;98433.03;4943387;29;20035;-68
2021/04/11 18:24:45;;;;;;;1.63;1.30;;;;;;;11.09;81.00;98433.09;4918881;28;20035;-68
2021/04/11 18:27:41;;;;;;;1.70;1.50;;;;;;;10.99;81.59;98440.25;4949914;28;20437;-68
2021/04/11 18:30:11;;;;;;;2.88;1.58;;;;;;;10.59;82.99;98434.31;4921061;28;20523;-68
2021/04/11 18:32:45;;;;;;;2.00;1.80;;;;;;;10.65;84.54;98434.19;4947866;28;20183;-68
2021/04/11 18:35:52;;;;;;;1.80;1.70;;;;;;;10.80;83.47;98439.00;4923155;28;20519;-68
2021/04/11 18:38:30;;;;;;;1.45;1.35;;;;;;;10.70;83.36;98437.53;4946993;28;20089;-68
2021/04/11 18:41:01;;;;;;;3.00;1.60;;;;;;;10.76;84.54;98452.91;4934303;28;20125;-68
2021/04/11 18:43:36;;;;;;;2.83;1.80;;;;;;;10.90;83.92;98456.03;4950437;28;20023;-68
2021/04/11 18:46:19;;;;;;;1.83;1.40;;;;;;;10.83;83.15;98467.44;4927273;28;20047;-68
2021/04/11 18:49:06;;;;;;;1.10;1.10;;;;;;;10.72;83.37;98462.50;4940064;29;20086;-68
2021/04/11 18:51:59;;;;;;;2.28;1.30;;;;;;;10.64;84.89;98464.44;4927733;28;20547;-67
2021/04/11 18:54:45;;;;;;;18.27;9.65;;;;;;;10.57;84.42;98472.38;4947534;28;20114;-69
2021/04/11 18:57:33;;;;;;;1.70;1.60;;;;;;;10.63;84.18;98482.59;4941604;29;20020;-67
2021/04/11 19:00:14;;;;;;;1.60;1.50;;;;;;;10.21;86.04;98480.03;4924286;28;20409;-68
2021/04/11 19:02:59;;;;;;;1.55;1.45;;;;;;;10.44;85.40;98482.16;4947343;28;20094;-68
2021/04/11 19:05:51;;;;;;;1.15;1.08;;;;;;;10.34;84.64;98478.91;4926400;28;20050;-68
2021/04/11 19:08:56;;;;;;;1.23;1.13;;;;;;;10.07;86.45;98488.09;4945523;28;20031;-69
2021/04/11 19:11:49;;;;;;;1.50;1.40;;;;;;;10.22;85.90;98486.94;4915795;28;20046;-68
2021/04/11 19:14:43;;;;;;;1.40;1.30;;;;;;;10.35;85.47;98485.81;4941000;29;20118;-67
2021/04/11 19:17:18;;;;;;;1.45;1.35;;;;;;;10.25;86.76;98492.03;4970737;23;20057;-72
2021/04/11 19:20:08;;;;;;;2.75;1.90;;;;;;;10.23;87.26;98489.47;4922805;28;20094;-72
2021/04/11 19:23:04;;;;;;;2.72;2.03;;;;;;;10.28;87.51;98499.75;4947598;28;20038;-72
2021/04/11 19:26:08;;;;;;;1.60;1.50;;;;;;;10.13;87.86;98503.50;4920013;28;20122;-72
2021/04/11 19:28:49;;;;;;;1.33;1.20;;;;;;;9.98;87.55;98504.66;4928324;29;20050;-72
2021/04/11 19:31:56;;;;;;;1.38;1.27;;;;;;;9.79;87.36;98503.31;4902231;29;20050;-72
2021/04/11 19:34:42;;;;;;;7.35;5.35;;;;;;;9.73;87.54;98509.47;4927840;29;20036;-71
2021/04/11 19:37:15;;;;;;;1.33;1.30;;;;;;;9.51;88.18;98503.81;4927003;29;20028;-72
2021/04/11 19:40:15;;;;;;;2.17;1.92;;;;;;;9.73;88.34;98508.63;4905194;28;20497;-72
2021/04/11 19:43:00;;;;;;;;;;;;;;;9.68;88.11;98508.69;4917178;29;20047;-72
2021/04/11 19:45:50;;;;;;;2.65;1.88;;;;;;;9.55;87.97;98508.94;4903255;29;20398;-72
2021/04/11 19:48:46;;;;;;;1.75;1.50;;;;;;;9.41;88.79;98501.44;4932397;29;20031;-71